Time;durP1;ratioP1;P1;durP2;ratioP2;P2;SDS_P1;SDS_P2;PMS_P1;PMS_P2;Temp;Humidity;BMP_temperature;BMP_pressure;BME280_temperature;BME280_humidity;BME280_pressure;Samples;Min_cycle;Max_cycle;Signal;HPM_P1;HPM_P2
2023/09/20 00:00:45;;;;;;;3.53;1.83;;;;;;;25.31;49.09;100317.94;5112730;28;20043;-65
2023/09/20 00:03:14;;;;;;;3.05;1.77;;;;;;;25.30;48.71;100318.97;5112657;28;20492;-65
2023/09/20 00:05:43;;;;;;;2.97;1.67;;;;;;;25.29;48.99;100311.84;5112805;28;20054;-65
2023/09/20 00:08:13;;;;;;;3.20;1.90;;;;;;;25.28;48.76;100310.09;5112862;28;20192;-65
2023/09/20 00:10:45;;;;;;;3.42;1.85;;;;;;;25.27;49.07;100308.41;5112568;28;20051;-65
2023/09/20 00:13:14;;;;;;;4.13;2.00;;;;;;;25.26;48.92;100312.19;5112654;28;20048;-65
2023/09/20 00:15:43;;;;;;;3.90;1.83;;;;;;;25.24;49.13;100314.25;5112888;28;20404;-65
2023/09/20 00:18:12;;;;;;;3.53;1.90;;;;;;;25.24;48.80;100317.84;5112685;28;20052;-65
2023/09/20 00:20:39;;;;;;;3.63;2.03;;;;;;;25.23;48.89;100318.03;5112573;28;20104;-65
2023/09/20 00:23:10;;;;;;;3.65;1.95;;;;;;;25.22;49.01;100310.88;5112449;28;20040;-65
2023/09/20 00:25:40;;;;;;;3.85;1.98;;;;;;;25.21;48.95;100315.47;5112363;28;20461;-65
2023/09/20 00:28:11;;;;;;;3.13;1.85;;;;;;;25.20;49.02;100319.25;5112244;28;20047;-65
2023/09/20 00:30:39;;;;;;;2.78;1.80;;;;;;;25.19;48.63;100323.00;5112263;28;20055;-65
2023/09/20 00:33:08;;;;;;;3.40;1.90;;;;;;;25.18;49.02;100324.03;5112466;28;20058;-65
2023/09/20 00:35:39;;;;;;;4.50;1.80;;;;;;;25.17;49.12;100324.22;5112403;28;20071;-65
2023/09/20 00:38:08;;;;;;;4.10;2.20;;;;;;;25.16;48.91;100330.69;5094419;28;20093;-65
2023/09/20 00:40:37;;;;;;;3.92;1.85;;;;;;;25.15;48.92;100331.75;5112376;28;20082;-65
2023/09/20 00:43:07;;;;;;;3.63;1.85;;;;;;;25.13;49.00;100323.75;5112005;28;20044;-65
2023/09/20 00:45:38;;;;;;;3.80;2.00;;;;;;;25.13;49.02;100323.75;5112381;28;20131;-65
2023/09/20 00:48:09;;;;;;;3.53;1.65;;;;;;;25.12;48.96;100327.50;5112173;28;20436;-64
2023/09/20 00:50:38;;;;;;;4.18;1.90;;;;;;;25.10;48.77;100330.44;5112781;28;20048;-64
2023/09/20 00:53:13;;;;;;;2.90;1.77;;;;;;;25.10;48.83;100330.44;5112252;28;20653;-65
2023/09/20 00:55:43;;;;;;;3.60;2.08;;;;;;;25.08;48.76;100326.16;5112602;28;20116;-66
2023/09/20 00:58:16;;;;;;;3.88;1.90;;;;;;;25.08;48.93;100342.53;5112696;28;20055;-65
2023/09/20 01:00:45;;;;;;;3.25;1.83;;;;;;;25.05;48.83;100335.56;5112514;28;20044;-65
2023/09/20 01:03:18;;;;;;;4.00;2.05;;;;;;;25.05;49.38;100332.84;5112266;28;20054;-65
2023/09/20 01:05:48;;;;;;;3.50;1.90;;;;;;;25.04;48.94;100339.34;5112595;28;20394;-65
2023/09/20 01:08:19;;;;;;;3.03;1.88;;;;;;;25.02;49.14;100333.22;5116992;28;20050;-66
2023/09/20 01:10:48;;;;;;;3.75;2.00;;;;;;;25.01;48.82;100315.13;5118029;28;20059;-65
2023/09/20 01:13:18;;;;;;;2.70;1.58;;;;;;;25.00;49.21;100318.88;5118390;28;20493;-65
2023/09/20 01:15:48;;;;;;;3.92;1.90;;;;;;;25.00;49.05;100318.88;5117937;28;20040;-65
2023/09/20 01:18:16;;;;;;;4.13;2.00;;;;;;;24.98;49.16;100328.28;5118731;28;20088;-65
2023/09/20 01:20:44;;;;;;;4.47;2.03;;;;;;;24.98;49.35;100317.34;5118456;28;20096;-65
2023/09/20 01:23:14;;;;;;;3.28;1.80;;;;;;;24.98;49.30;100320.94;5117324;28;20100;-65
2023/09/20 01:25:43;;;;;;;5.10;2.30;;;;;;;24.97;49.29;100319.25;5116291;28;20108;-65
2023/09/20 01:28:12;;;;;;;3.15;1.92;;;;;;;24.96;49.38;100322.16;5115797;28;20044;-65
2023/09/20 01:30:42;;;;;;;3.70;1.90;;;;;;;24.95;49.07;100315.84;5115738;28;20052;-64
2023/09/20 01:33:12;;;;;;;2.88;1.67;;;;;;;24.92;49.13;100315.38;5115604;28;20073;-65
2023/09/20 01:35:45;;;;;;;3.55;1.95;;;;;;;24.93;49.38;100320.66;5115769;28;20400;-64
2023/09/20 01:38:15;;;;;;;3.23;1.90;;;;;;;24.91;49.28;100316.41;5115707;28;20089;-64
2023/09/20 01:40:46;;;;;;;3.63;2.00;;;;;;;24.91;49.49;100320.00;5115508;28;20476;-63
2023/09/20 01:43:18;;;;;;;3.38;1.85;;;;;;;24.91;48.99;100317.25;5115490;28;20403;-65
2023/09/20 01:45:46;;;;;;;3.50;2.15;;;;;;;24.90;49.30;100318.28;5115294;28;20048;-64
2023/09/20 01:48:15;;;;;;;4.10;2.20;;;;;;;24.89;49.11;100315.72;5115560;28;20062;-64
2023/09/20 01:50:43;;;;;;;3.33;1.90;;;;;;;24.88;49.17;100325.78;5115286;28;20040;-64
2023/09/20 01:53:12;;;;;;;3.33;1.75;;;;;;;24.87;49.26;100326.81;5115272;28;20043;-64
2023/09/20 01:55:43;;;;;;;4.57;2.15;;;;;;;24.87;49.16;100326.81;5115220;28;20439;-64
2023/09/20 01:58:12;;;;;;;3.50;1.77;;;;;;;24.84;49.27;100319.88;5115111;28;21275;-64
2023/09/20 02:00:42;;;;;;;3.65;2.08;;;;;;;24.84;49.34;100324.47;5115296;28;20052;-64
2023/09/20 02:03:16;;;;;;;3.80;1.80;;;;;;;24.82;49.21;100330.13;5115275;28;20051;-64
2023/09/20 02:05:47;;;;;;;3.88;1.95;;;;;;;24.82;49.46;100326.53;5115286;28;20047;-66
2023/09/20 02:08:16;;;;;;;3.05;1.88;;;;;;;24.81;49.35;100331.16;5115081;28;20581;-64
2023/09/20 02:10:50;;;;;;;3.00;1.55;;;;;;;24.80;49.13;100323.13;5114735;28;20488;-65
2023/09/20 02:13:19;;;;;;;3.88;1.85;;;;;;;24.79;49.45;100332.34;5115090;28;20047;-65
2023/09/20 02:15:51;;;;;;;3.50;1.88;;;;;;;24.77;49.36;100323.50;5114769;28;20043;-64
2023/09/20 02:18:22;;;;;;;3.28;1.80;;;;;;;24.77;49.29;100324.34;5114767;28;20054;-65
2023/09/20 02:20:50;;;;;;;3.08;1.73;;;;;;;24.74;49.44;100318.41;5114666;28;20047;-64
2023/09/20 02:23:19;;;;;;;3.08;1.73;;;;;;;24.75;49.27;100325.56;5096599;28;20047;-65
2023/09/20 02:25:48;;;;;;;3.50;1.90;;;;;;;24.75;49.43;100320.13;5096934;28;20131;-65
2023/09/20 02:28:18;;;;;;;2.63;1.60;;;;;;;24.72;49.18;100310.44;5114855;28;20050;-64
2023/09/20 02:30:50;;;;;;;3.05;1.70;;;;;;;24.73;49.13;100319.44;5114780;28;20043;-64
2023/09/20 02:33:19;;;;;;;4.47;2.00;;;;;;;24.72;49.38;100320.50;5114244;28;20134;-65
2023/09/20 02:35:48;;;;;;;3.35;1.88;;;;;;;24.71;49.16;100324.25;5114298;28;20077;-64
2023/09/20 02:38:16;;;;;;;4.00;1.85;;;;;;;24.71;49.16;100321.53;5114524;28;20043;-65
2023/09/20 02:40:46;;;;;;;4.18;2.00;;;;;;;24.68;49.16;100324.59;5114505;28;20501;-65
2023/09/20 02:43:16;;;;;;;3.58;1.90;;;;;;;24.68;49.28;100313.69;5114338;28;20393;-64
2023/09/20 02:45:47;;;;;;;4.22;2.35;;;;;;;24.66;49.30;100305.69;5114251;28;20131;-64
2023/09/20 02:48:15;;;;;;;3.97;2.20;;;;;;;24.66;49.18;100322.06;5114108;28;20043;-65
2023/09/20 02:50:47;;;;;;;3.67;2.10;;;;;;;24.65;49.18;100314.06;5114161;28;20499;-64
2023/09/20 02:53:15;;;;;;;3.13;1.77;;;;;;;24.64;49.10;100317.81;5114265;28;20043;-65
2023/09/20 02:55:44;;;;;;;2.95;1.63;;;;;;;24.63;49.25;100318.84;5114126;28;20126;-65
2023/09/20 02:58:13;;;;;;;4.03;1.92;;;;;;;24.62;49.27;100317.16;5113989;28;20036;-64
2023/09/20 03:00:46;;;;;;;4.30;2.20;;;;;;;24.62;48.95;100319.88;5113661;28;20492;-64
2023/09/20 03:03:17;;;;;;;3.40;2.10;;;;;;;24.61;49.42;100316.31;5114119;28;20051;-66
2023/09/20 03:05:46;;;;;;;3.45;1.85;;;;;;;24.61;49.38;100323.63;5113964;28;20075;-65
2023/09/20 03:08:14;;;;;;;4.65;2.10;;;;;;;24.60;49.27;100321.91;5113960;28;20048;-65
2023/09/20 03:10:43;;;;;;;3.60;1.80;;;;;;;24.58;49.22;100323.97;5095511;28;20120;-65
2023/09/20 03:13:16;;;;;;;2.85;1.73;;;;;;;24.57;49.35;100316.84;5113677;28;20043;-66
2023/09/20 03:15:48;;;;;;;3.63;1.95;;;;;;;24.57;49.14;100322.28;5113485;28;20047;-65
2023/09/20 03:18:18;;;;;;;3.88;2.00;;;;;;;24.55;49.10;100326.06;5113786;28;20416;-65
2023/09/20 03:20:48;;;;;;;4.13;1.90;;;;;;;24.54;49.11;100328.97;5113550;28;20390;-65
2023/09/20 03:23:17;;;;;;;4.57;2.00;;;;;;;24.54;49.17;100331.69;5113537;28;20050;-65
2023/09/20 03:25:45;;;;;;;2.85;1.70;;;;;;;24.52;49.24;100326.41;5113426;28;20507;-65
2023/09/20 03:28:13;;;;;;;3.55;1.75;;;;;;;24.50;49.39;100325.72;5113215;28;20048;-65
2023/09/20 03:30:41;;;;;;;3.92;1.90;;;;;;;24.50;49.25;100322.16;5112926;28;20047;-65
2023/09/20 03:33:10;;;;;;;3.67;1.67;;;;;;;24.49;49.19;100332.22;5113309;28;20058;-65
2023/09/20 03:35:40;;;;;;;4.47;2.35;;;;;;;24.49;49.13;100331.38;5113237;28;20047;-65
2023/09/20 03:38:09;;;;;;;3.65;2.13;;;;;;;24.47;49.11;100331.56;5113037;28;20043;-65
2023/09/20 03:40:41;;;;;;;3.85;1.85;;;;;;;24.48;48.95;100335.13;5112885;28;20073;-65
2023/09/20 03:43:09;;;;;;;3.75;2.00;;;;;;;24.46;49.07;100338.03;5112991;28;20578;-65
2023/09/20 03:45:38;;;;;;;3.92;1.92;;;;;;;24.45;49.06;100336.34;5113222;28;20047;-65
2023/09/20 03:48:07;;;;;;;3.05;1.70;;;;;;;24.45;49.03;100336.34;5113027;28;20146;-65
2023/09/20 03:50:35;;;;;;;3.42;1.60;;;;;;;24.44;49.03;100334.66;5112950;28;20054;-66
2023/09/20 03:53:05;;;;;;;2.92;1.60;;;;;;;24.43;49.09;100332.94;5112904;28;20047;-66
2023/09/20 03:55:34;;;;;;;2.97;1.48;;;;;;;24.42;48.90;100328.53;5112627;28;20047;-66
2023/09/20 03:58:03;;;;;;;3.25;1.63;;;;;;;24.41;49.01;100329.53;5112826;28;20633;-66
2023/09/20 04:00:32;;;;;;;3.83;1.88;;;;;;;24.40;49.18;100330.56;5112406;28;20044;-66
2023/09/20 04:03:05;;;;;;;3.78;1.92;;;;;;;24.39;49.15;100326.16;5112799;28;20043;-66
2023/09/20 04:05:37;;;;;;;2.88;1.65;;;;;;;24.37;49.33;100322.75;5112510;28;20106;-65
2023/09/20 04:08:16;;;;;;;3.15;1.90;;;;;;;24.39;49.20;100325.28;5112767;28;20130;-66
2023/09/20 04:10:45;;;;;;;2.90;1.40;;;;;;;24.37;49.02;100322.75;5094779;28;20052;-65
2023/09/20 04:13:14;;;;;;;3.20;1.67;;;;;;;24.37;49.14;100328.22;5112598;28;20040;-66
2023/09/20 04:15:44;;;;;;;3.88;1.90;;;;;;;24.35;49.24;100335.72;5112451;28;20062;-65
2023/09/20 04:18:13;;;;;;;3.45;1.67;;;;;;;24.35;49.21;100340.34;5112396;28;20096;-65
2023/09/20 04:20:42;;;;;;;3.78;1.90;;;;;;;24.35;49.15;100341.19;5112441;28;20414;-65
2023/09/20 04:23:10;;;;;;;4.20;1.85;;;;;;;24.33;49.26;100337.78;5112508;28;20585;-64
2023/09/20 04:25:41;;;;;;;2.80;1.70;;;;;;;24.32;49.27;100336.09;5112403;28;20088;-65
2023/09/20 04:28:09;;;;;;;2.55;1.70;;;;;;;24.31;49.27;100334.38;5112208;28;20048;-65
2023/09/20 04:30:38;;;;;;;3.35;1.80;;;;;;;24.31;49.20;100334.38;5112124;28;20486;-65
2023/09/20 04:33:10;;;;;;;2.88;1.67;;;;;;;24.30;49.52;100340.81;5112378;28;20075;-64
2023/09/20 04:35:38;;;;;;;3.15;1.67;;;;;;;24.30;49.10;100343.53;5112297;28;20043;-65
2023/09/20 04:38:07;;;;;;;2.97;1.50;;;;;;;24.30;49.37;100343.53;5112199;28;20170;-67
2023/09/20 04:40:35;;;;;;;4.43;2.10;;;;;;;24.28;49.30;100343.72;5111842;28;20091;-66
2023/09/20 04:43:07;;;;;;;2.50;1.40;;;;;;;24.27;49.09;100344.75;5111484;28;20075;-66
2023/09/20 04:45:35;;;;;;;3.90;1.85;;;;;;;24.27;49.19;100352.09;5112018;28;20051;-65
2023/09/20 04:48:05;;;;;;;3.85;1.95;;;;;;;24.26;49.38;100353.13;5112080;28;20044;-65
2023/09/20 04:50:34;;;;;;;3.35;1.83;;;;;;;24.26;49.27;100358.56;5111974;28;20043;-65
2023/09/20 04:53:02;;;;;;;2.72;1.60;;;;;;;24.24;49.18;100363.34;5111784;28;20044;-65
2023/09/20 04:55:33;;;;;;;4.20;2.17;;;;;;;24.24;49.39;100366.94;5111671;28;20069;-66
2023/09/20 04:58:02;;;;;;;3.63;1.90;;;;;;;24.25;49.42;100365.06;5111618;28;20567;-66
2023/09/20 05:00:37;;;;;;;3.50;1.75;;;;;;;24.23;49.23;100365.22;5111328;28;20480;-65
2023/09/20 05:03:05;;;;;;;3.30;1.80;;;;;;;24.24;49.21;100366.09;5111932;28;20039;-65
2023/09/20 05:05:34;;;;;;;4.20;1.90;;;;;;;24.24;49.11;100374.25;5111767;28;20100;-65
2023/09/20 05:08:03;;;;;;;3.40;2.00;;;;;;;24.22;49.27;100373.56;5111789;28;20057;-65
2023/09/20 05:10:32;;;;;;;3.67;1.88;;;;;;;24.22;49.31;100374.44;5111516;28;20051;-65
2023/09/20 05:13:00;;;;;;;4.45;2.03;;;;;;;24.22;49.18;100370.84;5111406;28;20124;-65
2023/09/20 05:15:29;;;;;;;3.30;1.90;;;;;;;24.22;48.98;100379.00;5111699;28;20100;-65
2023/09/20 05:17:58;;;;;;;4.13;1.80;;;;;;;24.20;49.33;100383.78;5111734;28;20506;-65
2023/09/20 05:20:28;;;;;;;4.75;2.17;;;;;;;24.19;49.47;100376.66;5111474;28;20063;-65
2023/09/20 05:22:57;;;;;;;4.47;2.20;;;;;;;24.20;49.17;100381.06;5111462;28;20076;-65
2023/09/20 05:25:28;;;;;;;4.18;2.40;;;;;;;24.19;49.26;100376.66;5111501;28;20040;-66
2023/09/20 05:27:57;;;;;;;3.42;1.75;;;;;;;24.18;49.28;100378.53;5111521;28;20043;-66
2023/09/20 05:30:26;;;;;;;4.43;2.13;;;;;;;24.17;49.28;100373.25;5111609;28;20410;-66
2023/09/20 05:32:54;;;;;;;5.57;2.25;;;;;;;24.17;49.44;100373.25;5111592;28;20047;-66
2023/09/20 05:35:25;;;;;;;3.65;2.15;;;;;;;24.16;49.27;100383.31;5111255;28;20044;-66
2023/09/20 05:37:54;;;;;;;3.35;1.90;;;;;;;24.17;49.42;100389.59;5111208;28;20043;-66
2023/09/20 05:40:27;;;;;;;3.92;2.30;;;;;;;24.14;49.22;100387.25;5111368;28;20047;-67
2023/09/20 05:42:56;;;;;;;4.68;1.88;;;;;;;24.14;49.16;100387.25;5111423;28;20416;-67
2023/09/20 05:45:26;;;;;;;3.50;1.98;;;;;;;24.14;49.38;100396.28;5111051;28;20150;-66
2023/09/20 05:47:55;;;;;;;3.75;2.00;;;;;;;24.15;49.64;100397.13;5111008;28;20051;-66
2023/09/20 05:50:33;;;;;;;4.10;2.28;;;;;;;24.15;49.31;100394.41;5110730;28;20052;-65
2023/09/20 05:53:03;;;;;;;3.60;1.85;;;;;;;24.15;49.45;100397.13;5112439;28;20055;-66
2023/09/20 05:55:33;;;;;;;3.30;1.90;;;;;;;24.14;49.46;100396.28;5114951;28;20044;-67
2023/09/20 05:58:02;;;;;;;4.40;2.08;;;;;;;24.13;49.38;100391.84;5114054;28;20488;-68
2023/09/20 06:00:31;;;;;;;5.00;2.10;;;;;;;24.14;49.64;100404.44;5114161;28;20544;-67
2023/09/20 06:02:59;;;;;;;3.65;2.15;;;;;;;24.13;49.71;100405.47;5114933;28;20066;-67
2023/09/20 06:05:33;;;;;;;3.55;2.10;;;;;;;24.13;49.72;100405.47;5114928;28;20039;-67
2023/09/20 06:08:04;;;;;;;3.20;1.90;;;;;;;24.13;49.64;100399.19;5114752;28;20044;-68
2023/09/20 06:10:32;;;;;;;3.90;2.17;;;;;;;24.14;49.69;100400.88;5114470;28;20451;-67
2023/09/20 06:13:05;;;;;;;3.70;2.00;;;;;;;24.13;49.77;100404.63;5114565;28;20669;-67
2023/09/20 06:15:34;;;;;;;3.80;1.92;;;;;;;24.13;49.78;100412.81;5101797;27;20048;-67
2023/09/20 06:18:03;;;;;;;3.30;1.88;;;;;;;24.12;49.84;100405.63;5123538;27;20462;-67
2023/09/20 06:20:33;;;;;;;3.55;1.98;;;;;;;24.12;49.87;100411.06;5123590;27;20043;-67
2023/09/20 06:23:03;;;;;;;4.70;2.35;;;;;;;24.13;49.88;100423.69;5123196;27;20059;-67
2023/09/20 06:25:35;;;;;;;3.90;2.00;;;;;;;24.13;49.72;100418.25;5125476;27;20050;-67
2023/09/20 06:28:03;;;;;;;3.13;1.83;;;;;;;24.13;49.79;100423.69;5124179;27;20039;-67
2023/09/20 06:30:32;;;;;;;5.00;2.50;;;;;;;24.12;49.91;100428.28;5123400;27;20063;-68
2023/09/20 06:33:00;;;;;;;4.13;1.90;;;;;;;24.14;49.91;100430.84;5124854;27;20058;-66
2023/09/20 06:35:29;;;;;;;4.15;2.30;;;;;;;24.13;49.83;100430.00;5124944;27;20075;-67
2023/09/20 06:37:58;;;;;;;3.55;1.88;;;;;;;24.14;49.75;100428.97;5120565;27;20093;-66
2023/09/20 06:40:34;;;;;;;3.90;1.95;;;;;;;24.14;49.84;100428.13;5123404;27;20411;-66
2023/09/20 06:43:02;;;;;;;3.95;2.30;;;;;;;24.14;49.97;100428.97;5120716;27;20103;-67
2023/09/20 06:45:31;;;;;;;4.05;2.05;;;;;;;24.15;49.84;100444.28;5131590;27;20099;-67
2023/09/20 06:48:00;;;;;;;4.05;2.05;;;;;;;24.16;49.70;100437.81;5134535;27;20104;-67
2023/09/20 06:50:31;;;;;;;4.35;2.17;;;;;;;24.16;50.17;100434.25;5134271;27;20043;-67
2023/09/20 06:53:01;;;;;;;5.38;2.15;;;;;;;24.16;50.06;100429.63;5134479;27;20120;-66
2023/09/20 06:55:29;;;;;;;4.07;2.00;;;;;;;24.16;50.29;100432.38;5134520;27;20048;-67
2023/09/20 06:57:58;;;;;;;5.82;2.13;;;;;;;24.17;50.29;100425.03;5134300;27;20575;-67
2023/09/20 07:00:41;;;;;;;4.88;1.90;;;;;;;24.18;50.43;100432.19;5117315;27;20133;-67
2023/09/20 07:03:10;;;;;;;4.20;1.80;;;;;;;24.18;50.46;100432.19;5112820;28;20083;-67
2023/09/20 07:05:38;;;;;;;4.15;1.90;;;;;;;24.18;50.44;100438.47;5112629;28;20052;-68
2023/09/20 07:08:09;;;;;;;4.78;1.90;;;;;;;24.18;50.52;100433.03;5113767;28;20128;-67
2023/09/20 07:10:41;;;;;;;3.25;2.00;;;;;;;24.18;50.81;100437.63;5095763;28;20043;-67
2023/09/20 07:13:11;;;;;;;5.70;2.10;;;;;;;24.18;50.62;100441.22;5113595;28;20079;-69
2023/09/20 07:15:40;;;;;;;4.18;2.25;;;;;;;24.18;50.64;100440.34;5113594;28;20040;-69
2023/09/20 07:18:19;;;;;;;4.28;2.35;;;;;;;24.19;50.57;100429.28;5113297;28;20043;-66
2023/09/20 07:20:54;;;;;;;4.18;1.90;;;;;;;24.19;50.59;100440.19;5113561;28;20122;-67
2023/09/20 07:23:29;;;;;;;4.63;2.20;;;;;;;24.20;50.81;100439.16;5113531;28;20056;-67
2023/09/20 07:25:58;;;;;;;3.92;2.13;;;;;;;24.21;50.68;100442.72;5112749;28;20043;-66
2023/09/20 07:28:31;;;;;;;4.53;2.25;;;;;;;24.22;51.12;100441.69;5112680;28;20039;-67
2023/09/20 07:31:03;;;;;;;4.72;2.17;;;;;;;24.22;50.97;100438.97;5092965;28;20123;-67
2023/09/20 07:33:31;;;;;;;4.20;2.28;;;;;;;24.20;50.71;100436.41;5092957;28;20121;-66
2023/09/20 07:36:00;;;;;;;5.22;2.15;;;;;;;24.20;50.80;100443.75;5092869;28;20130;-66
2023/09/20 07:38:32;;;;;;;4.00;1.95;;;;;;;24.23;50.94;100447.00;5092707;28;20041;-67
2023/09/20 07:41:12;;;;;;;4.78;2.25;;;;;;;24.24;50.95;100453.28;5092581;28;20120;-68
2023/09/20 07:43:43;;;;;;;4.50;2.03;;;;;;;24.23;50.67;100448.88;5092270;28;20055;-66
2023/09/20 07:46:15;;;;;;;3.70;2.13;;;;;;;24.23;50.87;100449.72;5092467;28;20052;-66
2023/09/20 07:48:48;;;;;;;4.53;2.25;;;;;;;24.24;50.62;100443.25;5092465;28;20052;-66
2023/09/20 07:51:24;;;;;;;4.57;2.17;;;;;;;24.25;50.73;100444.09;5091786;28;20443;-66
2023/09/20 07:53:54;;;;;;;4.68;2.10;;;;;;;24.26;50.69;100440.34;5091030;28;20044;-66
2023/09/20 07:56:24;;;;;;;3.67;1.90;;;;;;;24.26;50.54;100437.59;5092260;28;20055;-66
2023/09/20 07:58:53;;;;;;;3.75;2.00;;;;;;;24.27;50.53;100451.06;5092319;28;20048;-66
2023/09/20 08:01:24;;;;;;;4.40;2.08;;;;;;;24.27;50.67;100447.47;5092396;28;20085;-65
2023/09/20 08:03:58;;;;;;;4.60;2.20;;;;;;;24.27;50.70;100447.47;5092100;28;20048;-66
2023/09/20 08:06:29;;;;;;;4.32;2.00;;;;;;;24.27;50.78;100451.06;5092162;28;20044;-66
2023/09/20 08:09:00;;;;;;;3.53;2.10;;;;;;;24.28;50.61;100449.19;5092359;28;20047;-66
2023/09/20 08:11:28;;;;;;;3.75;1.80;;;;;;;24.28;50.93;100450.03;5092064;28;20074;-66
2023/09/20 08:13:59;;;;;;;4.43;2.15;;;;;;;24.29;50.69;100453.59;5092155;28;20083;-66
2023/09/20 08:16:33;;;;;;;3.70;2.00;;;;;;;24.29;50.65;100450.88;5091880;28;20131;-67
2023/09/20 08:19:21;;;;;;;3.72;2.03;;;;;;;24.30;50.68;100452.56;5092038;28;20147;-66
2023/09/20 08:21:51;;;;;;;3.33;1.80;;;;;;;24.31;50.57;100442.50;5091887;28;20511;-66
2023/09/20 09:00:27;;;;;;;3.78;1.80;;;;;;;24.39;50.63;100435.19;5091531;28;20072;-65
2023/09/20 09:02:57;;;;;;;3.67;1.77;;;;;;;24.39;50.66;100426.16;5091418;28;20430;-66
2023/09/20 09:05:28;;;;;;;3.42;1.90;;;;;;;24.41;50.74;100424.09;5091517;28;20071;-66
2023/09/20 09:07:59;;;;;;;3.90;1.67;;;;;;;24.43;50.88;100433.81;5091536;28;20106;-66
2023/09/20 09:10:29;;;;;;;3.33;1.60;;;;;;;24.44;50.68;100426.50;5091500;28;20048;-66
2023/09/20 09:12:59;;;;;;;3.45;1.55;;;;;;;24.44;50.76;100424.63;5091158;28;20055;-66
2023/09/20 09:15:29;;;;;;;4.07;1.70;;;;;;;24.45;50.72;100412.69;5091531;28;20048;-66
2023/09/20 09:17:57;;;;;;;3.80;1.77;;;;;;;24.47;50.66;100413.34;5091363;28;20048;-67
2023/09/20 09:20:29;;;;;;;2.63;1.65;;;;;;;24.47;50.78;100405.16;5091350;28;20055;-66
2023/09/20 09:22:58;;;;;;;2.97;1.47;;;;;;;24.49;50.83;100407.72;5091239;28;21068;-66
2023/09/20 09:25:30;;;;;;;3.60;1.70;;;;;;;24.50;50.59;100398.50;5091216;28;20105;-67
2023/09/20 09:28:01;;;;;;;2.80;1.58;;;;;;;24.51;50.95;100403.81;5092930;28;20044;-67
2023/09/20 09:30:33;;;;;;;4.35;1.70;;;;;;;24.52;50.75;100393.75;5095021;28;20512;-66
2023/09/20 09:33:06;;;;;;;3.25;1.73;;;;;;;24.52;50.78;100386.41;5095342;28;20040;-66
2023/09/20 09:35:35;;;;;;;2.53;1.48;;;;;;;24.54;50.86;100381.63;5095046;28;20413;-66
2023/09/20 09:38:24;;;;;;;3.40;1.73;;;;;;;24.57;50.85;100383.13;5094801;28;20044;-66
2023/09/20 09:40:55;;;;;;;3.80;1.70;;;;;;;24.59;50.93;100374.75;5095514;28;20051;-65
2023/09/20 09:43:27;;;;;;;3.53;1.90;;;;;;;24.60;50.92;100373.72;5095109;28;20058;-66
2023/09/20 09:46:05;;;;;;;2.88;1.70;;;;;;;24.62;51.11;100375.28;5094954;28;20044;-66
2023/09/20 09:48:34;;;;;;;3.13;1.65;;;;;;;24.65;51.00;100374.06;5094843;28;20089;-66
2023/09/20 09:51:04;;;;;;;3.30;1.50;;;;;;;24.66;51.02;100368.41;5095096;28;20040;-66
2023/09/20 09:53:36;;;;;;;3.22;1.63;;;;;;;24.66;51.17;100357.50;5094867;28;20052;-66
2023/09/20 09:56:05;;;;;;;3.40;1.75;;;;;;;24.67;51.23;100367.38;5095034;28;20040;-66
2023/09/20 09:58:35;;;;;;;3.15;1.60;;;;;;;24.72;50.89;100361.41;5094609;28;20508;-66
2023/09/20 10:01:07;;;;;;;2.40;1.55;;;;;;;24.76;51.02;100360.00;5094711;28;20055;-66
2023/09/20 10:03:41;;;;;;;3.10;1.80;;;;;;;24.78;51.07;100368.84;5094729;28;20116;-66
2023/09/20 10:06:12;;;;;;;2.83;1.30;;;;;;;24.79;51.09;100365.91;5094685;28;20051;-66
2023/09/20 10:08:42;;;;;;;3.17;1.50;;;;;;;24.83;51.16;100366.44;5094561;28;20090;-67
2023/09/20 10:11:11;;;;;;;2.90;1.58;;;;;;;24.87;51.09;100361.44;5094316;28;20048;-66
2023/09/20 10:13:42;;;;;;;3.22;1.50;;;;;;;24.90;51.20;100359.22;5094326;28;20056;-67
2023/09/20 10:16:12;;;;;;;2.57;1.57;;;;;;;24.92;51.00;100359.88;5094711;28;20048;-66
2023/09/20 10:18:58;;;;;;;3.58;1.52;;;;;;;24.95;51.03;100351.31;5094494;28;20547;-66
2023/09/20 10:21:30;;;;;;;3.38;1.80;;;;;;;25.00;50.93;100357.09;5094309;28;20048;-66
2023/09/20 10:24:07;;;;;;;4.32;1.65;;;;;;;25.04;50.79;100354.88;5093988;28;20563;-66
2023/09/20 10:26:39;;;;;;;2.13;1.40;;;;;;;25.08;51.10;100356.19;5094412;28;20087;-66
2023/09/20 10:29:23;;;;;;;2.63;1.45;;;;;;;25.11;51.08;100353.09;5094251;28;20048;-67
2023/09/20 10:32:06;;;;;;;2.70;1.38;;;;;;;25.15;51.21;100343.50;5094173;28;20051;-67
2023/09/20 10:34:37;;;;;;;2.25;1.33;;;;;;;25.19;51.10;100343.97;5093807;28;20414;-65
2023/09/20 10:37:08;;;;;;;2.92;1.52;;;;;;;25.24;51.03;100344.28;5094046;28;20055;-67
2023/09/20 10:39:38;;;;;;;2.88;1.50;;;;;;;25.27;50.90;100342.00;5092503;28;20555;-66
2023/09/20 10:42:13;;;;;;;2.55;1.55;;;;;;;25.33;50.92;100340.44;5093635;28;20501;-67
2023/09/20 10:44:44;;;;;;;2.30;1.50;;;;;;;25.36;51.04;100337.31;5093739;28;20054;-66
2023/09/20 10:47:16;;;;;;;2.72;1.48;;;;;;;25.42;50.87;100336.59;5093578;28;20047;-67
2023/09/20 10:49:52;;;;;;;3.03;1.50;;;;;;;25.45;50.77;100336.22;5093807;28;20394;-67
2023/09/20 10:52:54;;;;;;;3.28;1.60;;;;;;;25.52;50.91;100339.91;5093673;28;20453;-67
2023/09/20 10:55:35;;;;;;;2.97;1.70;;;;;;;25.57;50.89;100337.44;5093580;28;20082;-66
2023/09/20 10:58:04;;;;;;;2.53;1.40;;;;;;;25.60;50.54;100331.63;5093661;28;20052;-66
2023/09/20 11:00:36;;;;;;;2.47;1.40;;;;;;;25.66;50.64;100339.03;5093162;28;20052;-65
2023/09/20 11:03:06;;;;;;;3.13;1.67;;;;;;;25.72;50.78;100323.00;5093306;28;20133;-65
2023/09/20 11:05:35;;;;;;;2.35;1.40;;;;;;;25.76;50.63;100327.88;5093269;28;20101;-66
2023/09/20 11:08:07;;;;;;;2.05;1.30;;;;;;;25.81;50.43;100321.84;5093326;28;20051;-65
2023/09/20 11:10:41;;;;;;;3.15;1.70;;;;;;;25.86;50.39;100322.13;5093270;28;20134;-65
2023/09/20 11:13:19;;;;;;;2.53;1.48;;;;;;;25.89;50.38;100308.09;5093100;28;20048;-66
2023/09/20 11:15:49;;;;;;;2.65;1.42;;;;;;;25.93;49.94;100304.78;5092907;28;20083;-66
2023/09/20 11:18:19;;;;;;;2.33;1.40;;;;;;;25.98;50.11;100301.50;5092972;28;20051;-65
2023/09/20 11:20:48;;;;;;;2.85;1.35;;;;;;;26.02;50.24;100297.31;5092903;28;20486;-66
2023/09/20 11:23:17;;;;;;;1.80;1.25;;;;;;;26.09;50.13;100287.31;5093009;28;20575;-67
2023/09/20 11:25:48;;;;;;;2.97;1.35;;;;;;;26.14;49.73;100289.47;5092912;28;20048;-66
2023/09/20 11:28:16;;;;;;;2.83;1.55;;;;;;;26.18;50.06;100285.31;5092925;28;20511;-66
2023/09/20 11:30:51;;;;;;;2.28;1.50;;;;;;;26.23;49.75;100283.69;5092859;28;20105;-67
2023/09/20 11:33:31;;;;;;;1.98;1.30;;;;;;;26.29;49.52;100286.72;5076146;28;20052;-66
2023/09/20 11:35:59;;;;;;;2.78;1.38;;;;;;;26.35;49.64;100275.00;5092979;28;20404;-66
2023/09/20 11:38:28;;;;;;;1.98;1.48;;;;;;;26.38;49.91;100272.75;5092936;28;20040;-66
2023/09/20 11:40:57;;;;;;;2.80;1.48;;;;;;;26.42;49.85;100282.25;5092814;28;20052;-65
2023/09/20 11:43:29;;;;;;;2.25;1.30;;;;;;;26.50;49.65;100289.50;5092523;28;20044;-66
2023/09/20 11:45:58;;;;;;;3.28;1.38;;;;;;;26.55;49.42;100289.75;5092614;28;20256;-67
2023/09/20 11:48:31;;;;;;;2.67;1.50;;;;;;;26.60;49.62;100283.69;5092553;28;20040;-67
2023/09/20 11:51:02;;;;;;;2.83;1.35;;;;;;;26.62;49.38;100282.44;5092040;28;20040;-67
2023/09/20 11:53:31;;;;;;;2.15;1.33;;;;;;;26.68;48.97;100278.94;5074568;28;20127;-66
2023/09/20 11:56:02;;;;;;;1.73;1.27;;;;;;;26.75;48.85;100277.13;5092456;28;20040;-67
2023/09/20 11:58:33;;;;;;;3.78;1.63;;;;;;;26.80;48.99;100268.31;5074177;28;20047;-67
2023/09/20 12:01:03;;;;;;;1.85;1.30;;;;;;;26.86;48.92;100267.53;5092302;28;20497;-67
2023/09/20 12:03:34;;;;;;;3.63;1.35;;;;;;;26.90;49.21;100266.06;5092197;28;20054;-66
2023/09/20 12:06:03;;;;;;;2.70;1.20;;;;;;;26.88;49.07;100261.84;5092132;28;20052;-66
2023/09/20 12:08:34;;;;;;;2.08;1.40;;;;;;;26.96;48.73;100262.56;5092018;28;20477;-67
2023/09/20 12:11:03;;;;;;;1.88;1.20;;;;;;;27.01;48.72;100259.22;5092300;28;20136;-67
2023/09/20 12:13:31;;;;;;;2.13;1.33;;;;;;;27.05;48.91;100258.66;5092140;28;20417;-67
2023/09/20 12:15:59;;;;;;;2.35;1.40;;;;;;;27.11;48.65;100248.78;5092234;28;20455;-68